createdAt,value
2023-05-11T00:00:01.872Z,47.83
2023-05-11T00:02:29.148Z,47.78
2023-05-11T00:04:56.721Z,47.89
2023-05-11T00:07:23.810Z,47.77
2023-05-11T00:09:51.252Z,47.74
2023-05-11T00:12:18.087Z,47.94
2023-05-11T00:14:45.865Z,47.75
2023-05-11T00:17:13.162Z,47.57
2023-05-11T00:19:40.623Z,48.14
2023-05-11T00:22:07.740Z,48.37
2023-05-11T00:24:35.170Z,48.76
2023-05-11T00:27:02.276Z,49.13
2023-05-11T00:29:29.650Z,48.51
2023-05-11T00:31:57.006Z,48.64
2023-05-11T00:34:24.409Z,48.65
2023-05-11T00:36:54.443Z,48.46
2023-05-11T00:39:21.822Z,48.05
2023-05-11T00:41:49.806Z,47.87
2023-05-11T00:44:17.073Z,47.69
2023-05-11T00:46:44.108Z,47.69
2023-05-11T00:49:11.948Z,48.81
2023-05-11T00:51:39.674Z,49.46
2023-05-11T00:54:13.137Z,49.55
2023-05-11T00:56:40.712Z,49.71
2023-05-11T00:59:09.268Z,49.23
2023-05-11T01:01:39.187Z,49.17
2023-05-11T01:04:07.530Z,49.39
2023-05-11T01:06:51.994Z,48.99
2023-05-11T01:09:31.480Z,48.79
2023-05-11T01:12:13.878Z,48.98
2023-05-11T01:15:11.954Z,48.91
2023-05-11T01:17:53.091Z,49.16
2023-05-11T01:20:27.922Z,49.07
2023-05-11T01:23:25.266Z,48.94
2023-05-11T01:27:02.817Z,49.01
2023-05-11T01:30:08.820Z,48.64
2023-05-11T01:32:41.785Z,48.74
2023-05-11T01:35:19.114Z,48.49
2023-05-11T01:37:53.073Z,48.50
2023-05-11T01:40:29.192Z,48.30
2023-05-11T01:43:03.917Z,48.86
2023-05-11T01:45:38.699Z,48.73
2023-05-11T01:48:13.107Z,49.22
2023-05-11T01:50:42.144Z,49.02
2023-05-11T01:53:13.828Z,48.85
2023-05-11T01:55:43.649Z,48.80
2023-05-11T01:58:15.122Z,48.35
2023-05-11T02:00:46.565Z,48.61
2023-05-11T02:03:16.462Z,48.66
2023-05-11T02:05:46.628Z,48.85
2023-05-11T02:08:16.810Z,48.68
2023-05-11T02:10:46.329Z,48.68
2023-05-11T02:13:16.915Z,48.36
2023-05-11T02:15:47.398Z,48.37
2023-05-11T02:18:16.501Z,48.27
2023-05-11T02:20:45.788Z,48.63
2023-05-11T02:23:14.324Z,48.40
2023-05-11T02:25:43.164Z,48.80
2023-05-11T02:28:10.636Z,48.84
2023-05-11T02:30:47.314Z,48.55
2023-05-11T02:33:40.277Z,48.36
2023-05-11T02:36:08.310Z,48.50
2023-05-11T02:38:38.281Z,48.73
2023-05-11T02:41:12.448Z,48.56
2023-05-11T02:43:49.524Z,48.55
2023-05-11T02:46:24.144Z,48.66
2023-05-11T02:49:01.462Z,48.69
2023-05-11T02:51:38.867Z,48.65
2023-05-11T02:54:10.960Z,48.64
2023-05-11T02:56:39.311Z,48.93
2023-05-11T02:59:07.331Z,48.65
2023-05-11T03:01:35.330Z,48.88
2023-05-11T03:04:06.155Z,48.60
2023-05-11T03:06:33.746Z,48.79
2023-05-11T03:09:02.308Z,48.51
2023-05-11T03:11:30.987Z,48.71
2023-05-11T03:13:59.164Z,48.82
2023-05-11T03:16:26.956Z,48.53
2023-05-11T03:18:55.896Z,48.59
2023-05-11T03:21:26.551Z,48.99
2023-05-11T03:23:55.306Z,48.84
2023-05-11T03:26:24.401Z,49.06
2023-05-11T03:28:56.047Z,49.29
2023-05-11T03:31:23.204Z,49.12
2023-05-11T03:33:50.469Z,49.29
2023-05-11T03:36:18.469Z,49.12
2023-05-11T03:38:48.836Z,49.12
2023-05-11T03:41:17.905Z,48.88
2023-05-11T03:43:52.606Z,49.34
2023-05-11T03:46:23.182Z,49.33
2023-05-11T03:48:51.313Z,49.33
2023-05-11T03:51:18.711Z,49.41
2023-05-11T03:53:46.752Z,49.54
2023-05-11T03:56:13.871Z,49.01
2023-05-11T03:58:42.003Z,48.97
2023-05-11T04:01:13.776Z,49.24
2023-05-11T04:03:52.394Z,49.57
2023-05-11T04:06:20.548Z,48.96
2023-05-11T04:08:48.104Z,49.08
2023-05-11T04:11:15.073Z,49.23
2023-05-11T04:13:42.661Z,49.24
2023-05-11T04:16:09.627Z,49.14
2023-05-11T04:18:37.024Z,49.29
2023-05-11T04:21:04.255Z,49.18
2023-05-11T04:23:31.488Z,48.96
2023-05-11T04:25:58.414Z,48.75
2023-05-11T04:28:28.016Z,48.74
2023-05-11T04:30:57.294Z,48.74
2023-05-11T04:33:25.117Z,48.77
2023-05-11T04:35:54.203Z,48.71
2023-05-11T04:38:22.780Z,48.81
2023-05-11T04:40:50.780Z,48.70
2023-05-11T04:43:18.948Z,48.71
2023-05-11T04:45:50.626Z,48.65
2023-05-11T04:48:19.736Z,48.33
2023-05-11T04:50:47.995Z,48.32
2023-05-11T04:53:15.473Z,48.51
2023-05-11T04:55:42.414Z,48.32
2023-05-11T04:58:09.679Z,48.24
2023-05-11T05:00:36.901Z,48.41
2023-05-11T05:03:04.700Z,48.24
2023-05-11T05:05:31.752Z,48.37
2023-05-11T05:07:59.277Z,48.22
2023-05-11T05:10:26.415Z,47.97
2023-05-11T05:12:53.644Z,48.11
2023-05-11T05:15:21.557Z,48.11
2023-05-11T05:17:48.873Z,48.08
2023-05-11T05:20:16.031Z,48.00
2023-05-11T05:22:43.382Z,47.49
2023-05-11T05:25:10.690Z,47.59
2023-05-11T05:27:38.618Z,47.76
2023-05-11T05:30:06.832Z,47.41
2023-05-11T05:32:34.188Z,47.49
2023-05-11T05:35:01.324Z,47.13
2023-05-11T05:37:28.639Z,47.21
2023-05-11T05:39:55.719Z,46.67
2023-05-11T05:42:23.100Z,46.81
2023-05-11T05:44:50.376Z,46.80
2023-05-11T05:47:17.708Z,46.53
2023-05-11T05:49:44.897Z,46.53
2023-05-11T05:52:12.114Z,46.01
2023-05-11T05:54:39.160Z,46.47
2023-05-11T05:57:06.695Z,46.20
2023-05-11T05:59:33.662Z,46.21
2023-05-11T06:02:00.892Z,46.12
2023-05-11T06:04:28.123Z,46.05
2023-05-11T06:06:56.112Z,45.98
2023-05-11T06:09:23.057Z,45.59
2023-05-11T06:11:50.342Z,45.61
2023-05-11T06:14:17.496Z,44.66
2023-05-11T06:16:44.919Z,44.83
2023-05-11T06:19:13.456Z,44.49
2023-05-11T06:21:43.005Z,44.44
2023-05-11T06:24:09.988Z,44.18
2023-05-11T06:26:37.361Z,44.26
2023-05-11T06:29:04.302Z,44.61
2023-05-11T06:31:31.648Z,44.76
2023-05-11T06:33:58.873Z,44.90
2023-05-11T06:36:26.313Z,45.15
2023-05-11T06:38:53.381Z,45.35
2023-05-11T06:41:21.454Z,45.43
2023-05-11T06:43:48.479Z,45.53
2023-05-11T06:46:17.927Z,45.71
2023-05-11T06:48:45.011Z,45.50
2023-05-11T06:51:12.723Z,45.56
2023-05-11T06:53:39.824Z,45.71
2023-05-11T06:56:08.263Z,45.54
2023-05-11T06:58:35.258Z,45.20
2023-05-11T07:01:05.431Z,45.54
2023-05-11T07:03:32.663Z,45.56
2023-05-11T07:05:59.954Z,46.11
2023-05-11T07:08:27.205Z,45.28
2023-05-11T07:10:54.590Z,44.46
2023-05-11T07:13:21.971Z,44.88
2023-05-11T07:15:49.895Z,45.18
2023-05-11T07:18:17.234Z,45.00
2023-05-11T07:20:46.939Z,44.47
2023-05-11T07:23:13.994Z,44.31
2023-05-11T07:25:41.190Z,43.87
2023-05-11T07:28:08.306Z,43.43
2023-05-11T07:30:35.490Z,43.13
2023-05-11T07:33:03.270Z,42.83
2023-05-11T07:35:30.909Z,42.70
2023-05-11T07:37:57.984Z,42.25
2023-05-11T07:40:25.490Z,42.12
2023-05-11T07:42:52.445Z,42.33
2023-05-11T07:45:19.738Z,42.37
2023-05-11T07:47:46.968Z,42.36
2023-05-11T07:50:14.479Z,42.24
2023-05-11T07:52:41.679Z,42.14
2023-05-11T07:55:09.610Z,41.97
2023-05-11T07:57:37.057Z,41.71
2023-05-11T08:00:05.990Z,41.80
2023-05-11T08:02:33.060Z,41.62
2023-05-11T08:05:00.315Z,41.59
2023-05-11T08:07:27.496Z,41.25
2023-05-11T08:09:54.474Z,41.29
2023-05-11T08:12:21.974Z,41.13
2023-05-11T08:14:49.347Z,40.89
2023-05-11T08:17:16.651Z,40.61
2023-05-11T08:19:43.662Z,40.39
2023-05-11T08:22:10.947Z,40.15
2023-05-11T08:24:38.292Z,40.43
2023-05-11T08:27:06.220Z,40.68
2023-05-11T08:29:33.260Z,40.10
2023-05-11T08:32:00.554Z,40.11
2023-05-11T08:34:27.882Z,39.73
2023-05-11T08:36:56.090Z,39.91
2023-05-11T08:39:39.016Z,39.64
2023-05-11T08:42:10.534Z,39.90
2023-05-11T08:44:41.785Z,39.68
2023-05-11T08:47:22.855Z,39.82
2023-05-11T08:49:55.117Z,39.67
2023-05-11T08:52:22.510Z,39.71
2023-05-11T08:54:49.631Z,40.37
2023-05-11T08:57:18.122Z,40.24
2023-05-11T08:59:47.009Z,37.26
2023-05-11T09:02:18.256Z,36.96
2023-05-11T09:04:48.555Z,35.74
2023-05-11T09:07:18.142Z,35.47
2023-05-11T09:09:47.708Z,34.55
2023-05-11T09:12:17.314Z,34.93
2023-05-11T09:14:44.961Z,34.39
2023-05-11T09:17:12.395Z,34.46
2023-05-11T09:20:01.970Z,34.19
2023-05-11T09:22:33.849Z,34.05
2023-05-11T09:25:04.045Z,34.23
2023-05-11T09:27:32.467Z,34.39
2023-05-11T09:30:23.241Z,34.38
2023-05-11T09:32:57.604Z,34.43
2023-05-11T09:35:34.283Z,34.42
2023-05-11T09:38:05.158Z,34.21
2023-05-11T09:40:36.076Z,32.80
2023-05-11T09:43:16.563Z,32.24
2023-05-11T09:45:46.540Z,32.49
2023-05-11T09:48:35.286Z,32.50
2023-05-11T09:51:08.153Z,32.43
2023-05-11T09:53:46.187Z,32.63
2023-05-11T09:56:14.095Z,32.68
2023-05-11T09:58:57.542Z,32.84
2023-05-11T10:01:33.181Z,32.22
2023-05-11T10:04:20.487Z,31.91
2023-05-11T10:06:53.849Z,31.64
2023-05-11T10:09:26.546Z,32.13
2023-05-11T10:11:55.645Z,32.10
2023-05-11T10:14:24.816Z,32.23
2023-05-11T10:16:53.861Z,32.14
2023-05-11T10:19:21.946Z,32.00
2023-05-11T10:21:52.493Z,32.37
2023-05-11T10:24:20.690Z,32.37
2023-05-11T10:26:48.559Z,31.83
2023-05-11T10:29:19.431Z,31.55
2023-05-11T10:31:48.764Z,31.05
2023-05-11T10:34:18.100Z,31.41
2023-05-11T10:36:47.290Z,31.36
2023-05-11T10:39:14.513Z,31.10
2023-05-11T10:42:06.486Z,31.25
2023-05-11T10:45:00.502Z,31.80
2023-05-11T10:47:37.491Z,32.02
2023-05-11T10:50:13.739Z,31.68
2023-05-11T10:52:59.440Z,31.73
2023-05-11T10:55:54.684Z,31.41
2023-05-11T10:58:39.502Z,30.75
2023-05-11T11:01:26.923Z,30.19
2023-05-11T11:04:05.622Z,30.03
2023-05-11T11:06:36.228Z,29.84
2023-05-11T11:09:13.700Z,30.35
2023-05-11T11:11:48.127Z,30.81
2023-05-11T11:14:18.026Z,31.50
2023-05-11T11:17:16.506Z,31.85
2023-05-11T11:19:43.678Z,32.22
2023-05-11T11:22:39.064Z,31.49
2023-05-11T11:25:11.825Z,30.78
2023-05-11T11:27:45.143Z,30.08
2023-05-11T11:30:31.234Z,29.70
2023-05-11T11:33:07.868Z,29.00
2023-05-11T11:35:44.817Z,28.93
2023-05-11T11:38:20.580Z,28.23
2023-05-11T11:40:54.846Z,28.61
2023-05-11T11:43:25.938Z,27.80
2023-05-11T11:46:01.671Z,27.47
2023-05-11T11:48:35.865Z,27.34
2023-05-11T11:51:10.457Z,27.78
2023-05-11T11:53:38.236Z,28.15
2023-05-11T11:56:28.949Z,28.88
2023-05-11T11:58:56.396Z,28.27
2023-05-11T12:01:27.549Z,27.62
2023-05-11T12:04:13.503Z,27.56
2023-05-11T12:06:43.148Z,27.11
2023-05-11T12:09:10.579Z,27.63
2023-05-11T12:11:38.721Z,27.50
2023-05-11T12:14:09.193Z,26.99
2023-05-11T12:16:36.258Z,26.88
2023-05-11T12:19:04.333Z,26.73
2023-05-11T12:21:32.582Z,26.51
2023-05-11T12:24:05.523Z,25.54
2023-05-11T12:26:34.658Z,25.75
2023-05-11T12:29:14.325Z,26.42
2023-05-11T12:31:46.855Z,26.57
2023-05-11T12:34:21.503Z,26.73
2023-05-11T12:36:53.705Z,26.49
2023-05-11T12:39:28.280Z,25.89
2023-05-11T12:41:57.116Z,25.71
2023-05-11T12:44:27.114Z,25.73
2023-05-11T12:46:55.052Z,26.10
2023-05-11T12:49:26.351Z,24.95
2023-05-11T12:52:00.201Z,24.72
2023-05-11T12:54:33.945Z,24.48
2023-05-11T12:57:03.026Z,25.30
2023-05-11T12:59:40.976Z,26.25
2023-05-11T13:02:16.498Z,27.37
2023-05-11T13:04:45.833Z,27.79
2023-05-11T13:07:15.333Z,28.53
2023-05-11T13:09:42.843Z,28.43
2023-05-11T13:12:19.679Z,28.68
2023-05-11T13:14:50.967Z,29.10
2023-05-11T13:17:38.527Z,28.89
2023-05-11T13:20:35.762Z,28.78
2023-05-11T13:23:14.739Z,28.80
2023-05-11T13:25:51.746Z,29.27
2023-05-11T13:28:23.463Z,29.27
2023-05-11T13:30:58.650Z,28.85
2023-05-11T13:33:25.559Z,28.71
2023-05-11T13:35:52.817Z,28.93
2023-05-11T13:38:19.854Z,28.63
2023-05-11T13:40:47.190Z,28.79
2023-05-11T13:43:14.189Z,28.21
2023-05-11T13:45:42.014Z,28.43
2023-05-11T13:48:09.211Z,28.84
2023-05-11T13:50:36.545Z,28.91
2023-05-11T13:53:03.569Z,29.32
2023-05-11T13:55:30.880Z,29.13
2023-05-11T13:57:58.134Z,28.79
2023-05-11T14:00:26.213Z,29.58
2023-05-11T14:02:53.654Z,29.79
2023-05-11T14:05:21.941Z,29.95
2023-05-11T14:07:49.450Z,29.87
2023-05-11T14:10:17.974Z,30.04
2023-05-11T14:12:46.344Z,29.32
2023-05-11T14:15:14.381Z,28.86
2023-05-11T14:17:43.065Z,29.77
2023-05-11T14:20:13.155Z,29.65
2023-05-11T14:22:43.260Z,30.64
2023-05-11T14:25:10.934Z,30.40
2023-05-11T14:27:38.127Z,31.59
2023-05-11T14:30:07.668Z,31.46
2023-05-11T14:32:34.685Z,31.72
2023-05-11T14:35:02.170Z,31.27
2023-05-11T14:37:29.899Z,31.45
2023-05-11T14:39:57.196Z,31.64
2023-05-11T14:42:24.211Z,32.03
2023-05-11T14:44:51.529Z,31.72
2023-05-11T14:47:18.668Z,31.43
2023-05-11T14:49:45.872Z,31.50
2023-05-11T14:52:13.197Z,31.96
2023-05-11T14:54:40.538Z,33.15
2023-05-11T14:57:07.744Z,33.14
2023-05-11T14:59:44.505Z,32.70
2023-05-11T15:02:18.563Z,32.79
2023-05-11T15:04:45.898Z,32.64
2023-05-11T15:07:13.018Z,33.49
2023-05-11T15:09:40.471Z,32.82
2023-05-11T15:12:08.184Z,32.76
2023-05-11T15:14:36.000Z,32.54
2023-05-11T15:17:03.663Z,32.83
2023-05-11T15:19:31.298Z,31.67
2023-05-11T15:21:58.291Z,31.03
2023-05-11T15:24:25.635Z,30.71
2023-05-11T15:26:52.666Z,31.12
2023-05-11T15:29:20.738Z,31.24
2023-05-11T15:31:47.761Z,31.02
2023-05-11T15:34:15.293Z,31.53
2023-05-11T15:36:42.439Z,31.53
2023-05-11T15:39:09.574Z,31.28
2023-05-11T15:41:36.591Z,31.53
2023-05-11T15:44:03.915Z,31.47
2023-05-11T15:46:31.313Z,31.32
2023-05-11T15:49:00.063Z,31.80
2023-05-11T15:51:28.400Z,31.51
2023-05-11T15:53:55.752Z,31.74
2023-05-11T15:56:22.824Z,31.48
2023-05-11T15:58:50.068Z,31.56
2023-05-11T16:01:17.073Z,31.33
2023-05-11T16:03:44.600Z,31.90
2023-05-11T16:06:11.615Z,31.86
2023-05-11T16:08:38.890Z,32.04
2023-05-11T16:11:05.845Z,32.03
2023-05-11T16:13:33.101Z,31.82
2023-05-11T16:16:00.234Z,32.19
2023-05-11T16:18:27.855Z,32.89
2023-05-11T16:20:54.849Z,32.73
2023-05-11T16:23:22.257Z,32.87
2023-05-11T16:25:49.128Z,33.26
2023-05-11T16:28:16.315Z,33.46
2023-05-11T16:30:43.516Z,33.15
2023-05-11T16:33:10.835Z,33.33
2023-05-11T16:35:37.764Z,33.63
2023-05-11T16:38:06.175Z,33.64
2023-05-11T16:40:33.092Z,33.96
2023-05-11T16:43:00.378Z,33.99
2023-05-11T16:45:27.329Z,34.00
2023-05-11T16:47:54.554Z,33.77
2023-05-11T16:50:21.860Z,33.39
2023-05-11T16:52:49.654Z,33.42
2023-05-11T16:55:16.672Z,33.37
2023-05-11T16:57:44.605Z,33.00
2023-05-11T17:00:14.640Z,32.84
2023-05-11T17:02:42.111Z,33.04
2023-05-11T17:05:11.498Z,33.17
2023-05-11T17:07:38.852Z,33.34
2023-05-11T17:10:07.299Z,33.35
2023-05-11T17:12:35.814Z,32.52
2023-05-11T17:15:03.672Z,32.10
2023-05-11T17:17:30.885Z,31.84
2023-05-11T17:19:58.139Z,32.07
2023-05-11T17:22:26.025Z,31.46
2023-05-11T17:24:53.417Z,31.10
2023-05-11T17:27:20.427Z,31.04
2023-05-11T17:29:47.759Z,31.08
2023-05-11T17:32:14.875Z,30.73
2023-05-11T17:34:42.380Z,31.19
2023-05-11T17:37:17.425Z,31.21
2023-05-11T17:39:52.381Z,31.32
2023-05-11T17:42:23.620Z,31.39
2023-05-11T17:44:50.984Z,31.68
2023-05-11T17:47:18.894Z,31.73
2023-05-11T17:49:46.234Z,31.92
2023-05-11T17:52:13.692Z,32.08
2023-05-11T17:54:41.094Z,32.15
2023-05-11T17:57:08.084Z,32.15
2023-05-11T17:59:36.078Z,32.45
2023-05-11T18:02:03.488Z,32.25
2023-05-11T18:04:31.067Z,32.45
2023-05-11T18:06:58.318Z,32.30
2023-05-11T18:09:26.072Z,32.41
2023-05-11T18:11:53.697Z,32.87
2023-05-11T18:14:21.157Z,32.93
2023-05-11T18:16:49.706Z,32.81
2023-05-11T18:19:19.784Z,33.37
2023-05-11T18:21:46.927Z,33.18
2023-05-11T18:24:18.293Z,33.80
2023-05-11T18:26:45.280Z,33.23
2023-05-11T18:29:12.543Z,33.25
2023-05-11T18:31:39.522Z,33.13
2023-05-11T18:34:07.428Z,33.49
2023-05-11T18:36:34.601Z,33.67
2023-05-11T18:39:01.795Z,33.82
2023-05-11T18:41:29.064Z,33.39
2023-05-11T18:43:56.516Z,33.42
2023-05-11T18:46:23.491Z,33.55
2023-05-11T18:48:52.734Z,33.39
2023-05-11T18:51:22.847Z,34.04
2023-05-11T18:53:50.607Z,33.98
2023-05-11T18:56:17.848Z,34.01
2023-05-11T18:58:46.478Z,34.46
2023-05-11T19:01:14.151Z,34.70
2023-05-11T19:03:41.514Z,34.49
2023-05-11T19:06:09.105Z,34.74
2023-05-11T19:08:36.408Z,34.46
2023-05-11T19:11:09.635Z,34.70
2023-05-11T19:13:37.216Z,34.87
2023-05-11T19:16:04.958Z,34.95
2023-05-11T19:18:35.483Z,35.15
2023-05-11T19:21:04.946Z,35.18
2023-05-11T19:23:33.480Z,35.47
2023-05-11T19:26:00.726Z,35.55
2023-05-11T19:28:27.966Z,35.34
2023-05-11T19:31:06.414Z,35.93
2023-05-11T19:33:34.225Z,35.64
2023-05-11T19:36:01.421Z,35.72
2023-05-11T19:38:28.606Z,35.99
2023-05-11T19:40:55.708Z,36.01
2023-05-11T19:43:23.771Z,35.92
2023-05-11T19:45:50.893Z,36.24
2023-05-11T19:48:19.087Z,36.11
2023-05-11T19:50:46.189Z,36.35
2023-05-11T19:53:13.374Z,36.37
2023-05-11T19:55:41.349Z,36.45
2023-05-11T19:58:08.682Z,36.38
2023-05-11T20:00:35.943Z,36.71
2023-05-11T20:03:03.791Z,36.67
2023-05-11T20:05:30.750Z,36.53
2023-05-11T20:07:57.986Z,36.53
2023-05-11T20:10:25.148Z,36.51
2023-05-11T20:12:52.593Z,36.92
2023-05-11T20:15:19.857Z,37.10
2023-05-11T20:17:47.234Z,36.75
2023-05-11T20:20:14.199Z,36.85
2023-05-11T20:22:41.638Z,37.14
2023-05-11T20:25:17.071Z,37.22
2023-05-11T20:27:46.114Z,37.06
2023-05-11T20:30:13.965Z,37.35
2023-05-11T20:34:06.956Z,37.23
2023-05-11T20:35:28.394Z,37.65
2023-05-11T20:37:55.730Z,37.71
2023-05-11T20:40:22.723Z,37.77
2023-05-11T20:42:49.919Z,37.72
2023-05-11T20:45:17.063Z,38.26
2023-05-11T20:47:44.249Z,38.44
2023-05-11T20:50:12.225Z,38.30
2023-05-11T20:52:39.554Z,38.19
2023-05-11T20:55:07.867Z,38.74
2023-05-11T20:57:35.113Z,38.63
2023-05-11T21:00:04.113Z,38.88
2023-05-11T21:02:31.974Z,39.22
2023-05-11T21:05:02.073Z,39.05
2023-05-11T21:07:29.946Z,38.95
2023-05-11T21:09:56.884Z,39.15
2023-05-11T21:12:24.045Z,39.18
2023-05-11T21:14:51.114Z,39.28
2023-05-11T21:17:18.533Z,39.06
2023-05-11T21:19:45.705Z,39.14
2023-05-11T21:22:12.897Z,39.45
2023-05-11T21:24:40.175Z,39.02
2023-05-11T21:27:07.554Z,39.16
2023-05-11T21:29:34.492Z,39.37
2023-05-11T21:32:02.296Z,39.41
2023-05-11T21:34:29.269Z,39.62
2023-05-11T21:36:56.804Z,39.80
2023-05-11T21:39:25.097Z,40.06
2023-05-11T21:41:52.346Z,40.19
2023-05-11T21:44:20.242Z,40.22
2023-05-11T21:46:47.623Z,40.43
2023-05-11T21:49:14.640Z,40.40
2023-05-11T21:51:42.523Z,40.53
2023-05-11T21:54:09.543Z,40.93
2023-05-11T21:56:36.936Z,40.85
2023-05-11T21:59:04.015Z,40.56
2023-05-11T22:01:31.305Z,40.65
2023-05-11T22:04:00.968Z,40.59
2023-05-11T22:06:28.321Z,40.63
2023-05-11T22:08:55.588Z,40.99
2023-05-11T22:11:22.772Z,40.72
2023-05-11T22:13:49.908Z,40.81
2023-05-11T22:16:17.174Z,40.98
2023-05-11T22:18:44.114Z,41.03
2023-05-11T22:21:11.752Z,41.22
2023-05-11T22:23:38.571Z,41.39
2023-05-11T22:26:05.755Z,41.59
2023-05-11T22:28:32.963Z,41.61
2023-05-11T22:31:00.794Z,41.51
2023-05-11T22:33:27.776Z,41.71
2023-05-11T22:35:54.901Z,41.66
2023-05-11T22:38:21.809Z,41.50
2023-05-11T22:40:48.935Z,41.97
2023-05-11T22:43:16.056Z,41.60
2023-05-11T22:45:43.132Z,41.75
2023-05-11T22:48:10.082Z,41.67
2023-05-11T22:50:37.258Z,41.73
2023-05-11T22:53:04.579Z,41.74
2023-05-11T22:55:31.951Z,42.12
2023-05-11T22:57:58.803Z,42.04
2023-05-11T23:00:26.057Z,42.35
2023-05-11T23:02:53.055Z,41.61
2023-05-11T23:05:20.274Z,41.83
2023-05-11T23:07:47.408Z,41.55
2023-05-11T23:10:14.670Z,41.75
2023-05-11T23:12:41.549Z,41.86
2023-05-11T23:15:09.795Z,42.01
2023-05-11T23:17:36.877Z,42.11
2023-05-11T23:20:04.912Z,42.15
2023-05-11T23:22:32.114Z,42.04
2023-05-11T23:25:00.476Z,42.22
2023-05-11T23:27:27.547Z,42.13
2023-05-11T23:29:54.683Z,42.30
2023-05-11T23:32:21.525Z,42.10
2023-05-11T23:34:48.754Z,42.24
2023-05-11T23:37:15.686Z,42.21
2023-05-11T23:39:42.835Z,42.08
2023-05-11T23:42:10.586Z,42.49
2023-05-11T23:44:37.685Z,41.92
2023-05-11T23:47:05.009Z,41.95
2023-05-11T23:49:32.477Z,42.12
2023-05-11T23:51:59.326Z,41.83
2023-05-11T23:54:26.545Z,42.11
2023-05-11T23:56:53.574Z,41.90
2023-05-11T23:59:20.797Z,41.88
